Time;durP1;ratioP1;P1;durP2;ratioP2;P2;SDS_P1;SDS_P2;PMS_P1;PMS_P2;Temp;Humidity;BMP_temperature;BMP_pressure;BME280_temperature;BME280_humidity;BME280_pressure;Samples;Min_cycle;Max_cycle;Signal;HPM_P1;HPM_P2
2021/12/29 00:00:23;;;;;;;34.30;15.38;;;5.50;99.90;;;;;;5041921;28;20041;-79
2021/12/29 00:02:49;;;;;;;;;;;5.50;99.90;;;;;;5061872;28;20196;-79
2021/12/29 00:05:16;;;;;;;28.73;15.37;;;5.40;99.90;;;;;;5061184;28;19912;-80
2021/12/29 00:07:42;;;;;;;38.45;19.77;;;5.40;99.90;;;;;;5059981;28;20213;-79
2021/12/29 00:10:11;;;;;;;52.05;23.55;;;5.50;99.90;;;;;;5055811;28;20021;-79
2021/12/29 00:12:41;;;;;;;48.28;23.10;;;5.60;99.90;;;;;;5037766;28;20195;-80
2021/12/29 00:15:10;;;;;;;48.40;21.92;;;5.60;99.90;;;;;;5059255;28;20032;-79
2021/12/29 00:17:43;;;;;;;49.05;22.38;;;6.80;99.90;;;;;;5058309;28;20051;-79
2021/12/29 00:20:16;;;;;;;58.20;25.45;;;5.60;99.90;;;;;;5059349;28;20529;-78
2021/12/29 00:22:42;;;;;;;74.35;30.50;;;5.60;99.90;;;;;;5057421;28;20028;-78
2021/12/29 00:25:10;;;;;;;123.07;44.65;;;5.60;99.90;;;;;;5056263;28;20089;-79
2021/12/29 00:27:36;;;;;;;182.27;59.58;;;5.60;99.90;;;;;;5059851;28;20044;-80
2021/12/29 00:30:03;;;;;;;175.70;62.08;;;5.60;99.90;;;;;;5061689;28;20033;-79
2021/12/29 00:32:29;;;;;;;176.23;65.68;;;5.50;99.90;;;;;;5061745;28;20427;-78
2021/12/29 00:34:55;;;;;;;194.98;71.68;;;5.50;99.90;;;;;;5060335;28;20017;-78
2021/12/29 00:37:21;;;;;;;184.85;66.22;;;5.60;99.90;;;;;;5044035;28;20087;-80
2021/12/29 00:40:23;;;;;;;;;;;;;;;;;;;;;
2021/12/29 00:42:49;;;;;;;189.10;67.72;;;6.60;99.90;;;;;;5012947;28;20494;-79
2021/12/29 00:45:17;;;;;;;206.45;71.50;;;5.50;99.90;;;;;;5063706;28;20025;-79
2021/12/29 00:47:48;;;;;;;199.60;70.15;;;5.50;99.90;;;;;;5063724;28;20017;-80
2021/12/29 00:50:16;;;;;;;190.65;69.85;;;5.70;99.90;;;;;;5052844;28;20443;-79
2021/12/29 00:52:45;;;;;;;205.70;69.97;;;5.50;99.90;;;;;;5058240;28;20025;-78
2021/12/29 00:55:15;;;;;;;189.63;71.03;;;5.40;99.90;;;;;;5036166;28;20017;-78
2021/12/29 00:57:43;;;;;;;197.68;71.40;;;5.50;99.90;;;;;;5053446;28;20029;-79
2021/12/29 01:00:14;;;;;;;188.90;67.97;;;5.50;99.90;;;;;;5053081;28;20025;-78
2021/12/29 01:02:41;;;;;;;199.68;69.70;;;5.40;99.90;;;;;;5035120;28;20041;-80
2021/12/29 01:05:10;;;;;;;186.82;68.05;;;6.60;99.90;;;;;;5055717;28;20025;-79
2021/12/29 01:07:37;;;;;;;186.85;67.28;;;5.40;99.90;;;;;;5053182;28;20076;-79
2021/12/29 01:10:22;;;;;;;167.27;60.17;;;5.40;99.90;;;;;;5055085;28;20029;-78
2021/12/29 01:12:56;;;;;;;110.40;42.38;;;5.40;99.90;;;;;;5049965;28;20029;-79
2021/12/29 01:15:32;;;;;;;83.53;36.60;;;5.40;99.90;;;;;;5033524;28;20021;-79
2021/12/29 01:18:01;;;;;;;87.28;36.00;;;5.40;99.90;;;;;;5033762;28;20249;-81
2021/12/29 01:20:29;;;;;;;109.97;40.72;;;5.30;99.90;;;;;;5052724;28;20444;-79
2021/12/29 01:22:59;;;;;;;136.73;49.72;;;5.30;99.90;;;;;;5052720;28;20048;-80
2021/12/29 01:25:29;;;;;;;154.23;56.33;;;5.30;99.90;;;;;;5052014;28;20323;-79
2021/12/29 01:27:55;;;;;;;167.07;60.88;;;5.30;99.90;;;;;;5051729;28;20037;-79
2021/12/29 01:30:21;;;;;;;185.18;64.07;;;5.30;99.90;;;;;;5051030;28;20025;-78
2021/12/29 01:32:47;;;;;;;163.10;64.95;;;5.40;99.90;;;;;;5034036;28;20673;-79
2021/12/29 01:35:13;;;;;;;177.07;65.88;;;5.30;99.90;;;;;;5051256;28;20028;-79
2021/12/29 01:37:40;;;;;;;173.13;65.50;;;5.40;99.90;;;;;;5050900;28;20052;-79
2021/12/29 01:40:11;;;;;;;175.38;66.60;;;5.40;99.90;;;;;;5046560;28;20033;-79
2021/12/29 01:42:37;;;;;;;173.50;64.90;;;5.40;99.90;;;;;;5047793;28;20069;-79
2021/12/29 01:45:04;;;;;;;175.65;63.50;;;5.40;99.90;;;;;;5046743;28;20114;-80
2021/12/29 01:47:31;;;;;;;168.48;65.25;;;5.40;99.90;;;;;;5028002;28;20245;-80
2021/12/29 01:50:00;;;;;;;175.48;64.43;;;5.40;99.90;;;;;;5047377;28;20186;-79
2021/12/29 01:52:34;;;;;;;184.88;68.97;;;5.40;99.90;;;;;;5045780;28;20545;-80
2021/12/29 01:55:00;;;;;;;180.63;67.35;;;5.40;99.90;;;;;;5030949;28;20052;-79
2021/12/29 01:57:28;;;;;;;181.38;67.55;;;5.30;99.90;;;;;;5047770;28;20021;-80
2021/12/29 01:59:54;;;;;;;167.82;64.38;;;5.30;99.90;;;;;;5047535;28;20108;-79
2021/12/29 02:02:19;;;;;;;168.88;66.18;;;5.30;99.90;;;;;;5049578;28;20052;-78
2021/12/29 02:04:48;;;;;;;159.75;64.35;;;5.30;99.90;;;;;;5049531;28;20067;-79
2021/12/29 02:07:17;;;;;;;167.95;63.17;;;5.40;99.90;;;;;;5053357;28;20043;-79
2021/12/29 02:09:43;;;;;;;158.35;60.83;;;5.40;99.90;;;;;;5061878;28;20082;-79
2021/12/29 02:12:19;;;;;;;131.30;50.47;;;3.50;99.90;;;;;;5062746;28;20075;-78
2021/12/29 02:14:49;;;;;;;84.13;36.15;;;5.40;99.90;;;;;;5044938;28;20025;-79
2021/12/29 02:17:23;;;;;;;59.35;25.23;;;5.40;99.90;;;;;;5045706;28;20162;-83
2021/12/29 02:19:52;;;;;;;135.63;51.67;;;5.30;99.90;;;;;;5060549;28;20021;-80
2021/12/29 02:22:32;;;;;;;138.70;54.33;;;5.30;99.90;;;;;;5060262;28;20036;-77
2021/12/29 02:25:21;;;;;;;171.82;61.75;;;5.30;99.90;;;;;;5062799;28;20021;-79
2021/12/29 02:27:54;;;;;;;156.63;60.95;;;5.30;99.90;;;;;;5062778;28;20108;-81
2021/12/29 02:30:26;;;;;;;197.73;69.75;;;5.30;99.90;;;;;;5059858;28;20025;-80
2021/12/29 02:32:55;;;;;;;178.70;68.30;;;5.40;99.90;;;;;;5061336;28;20029;-79
2021/12/29 02:35:25;;;;;;;183.85;67.80;;;5.20;99.90;;;;;;5063722;28;20254;-77
2021/12/29 02:37:51;;;;;;;181.23;68.32;;;5.30;99.90;;;;;;5031480;28;20037;-80
2021/12/29 02:40:18;;;;;;;178.30;67.53;;;5.30;99.90;;;;;;5063175;28;20032;-81
2021/12/29 02:42:44;;;;;;;177.75;63.05;;;5.40;99.90;;;;;;5059155;28;20100;-81
2021/12/29 02:45:14;;;;;;;178.20;67.45;;;3.60;99.90;;;;;;5058233;28;20052;-79
2021/12/29 02:47:41;;;;;;;185.60;67.00;;;5.40;99.90;;;;;;5059822;28;20032;-79
2021/12/29 02:50:07;;;;;;;183.00;69.25;;;5.30;99.90;;;;;;5063427;28;20168;-80
2021/12/29 02:52:34;;;;;;;172.50;66.47;;;5.30;99.90;;;;;;5040178;28;20047;-80
2021/12/29 02:55:03;;;;;;;185.35;68.93;;;5.30;99.90;;;;;;5059223;28;20017;-80
2021/12/29 02:57:29;;;;;;;187.70;68.82;;;5.20;99.90;;;;;;5057420;28;20021;-80
2021/12/29 02:59:57;;;;;;;164.20;64.18;;;5.30;99.90;;;;;;5058439;28;20095;-80
2021/12/29 03:02:23;;;;;;;175.82;68.53;;;5.20;99.90;;;;;;5056963;28;20345;-80
2021/12/29 03:04:49;;;;;;;188.77;69.03;;;5.20;99.90;;;;;;5043443;28;20090;-80
2021/12/29 03:07:14;;;;;;;187.30;70.78;;;5.20;99.90;;;;;;5060525;28;20036;-81
2021/12/29 03:09:40;;;;;;;178.48;67.40;;;5.20;99.90;;;;;;5058476;28;20025;-82
2021/12/29 03:12:06;;;;;;;186.50;68.75;;;5.20;99.90;;;;;;5035153;28;20352;-82
2021/12/29 03:14:33;;;;;;;179.10;67.00;;;5.20;99.90;;;;;;5052115;28;20024;-81
2021/12/29 03:16:58;;;;;;;162.63;64.35;;;5.30;99.90;;;;;;5035853;28;20028;-81
2021/12/29 03:19:29;;;;;;;171.55;65.05;;;5.20;99.90;;;;;;5058604;28;20024;-82
2021/12/29 03:21:55;;;;;;;179.52;67.13;;;5.20;99.90;;;;;;5036055;28;20062;-79
2021/12/29 03:24:21;;;;;;;164.48;64.38;;;5.30;99.90;;;;;;5052441;28;20056;-80
2021/12/29 03:26:55;;;;;;;160.38;60.03;;;5.30;99.90;;;;;;5054711;28;20044;-80
2021/12/29 03:29:21;;;;;;;94.88;40.58;;;5.30;99.90;;;;;;5055542;28;20033;-80
2021/12/29 03:31:47;;;;;;;65.63;28.90;;;5.30;99.90;;;;;;5055132;28;20017;-81
2021/12/29 03:34:16;;;;;;;53.90;24.17;;;5.30;99.90;;;;;;5057118;28;20017;-81
2021/12/29 03:36:42;;;;;;;40.53;20.55;;;5.30;99.90;;;;;;5036734;28;20061;-81
2021/12/29 03:39:11;;;;;;;31.60;16.85;;;5.30;99.90;;;;;;5056414;28;20099;-80
2021/12/29 03:41:41;;;;;;;25.30;13.70;;;5.30;99.90;;;;;;5058104;28;20048;-82
2021/12/29 03:44:13;;;;;;;23.20;11.88;;;5.30;99.90;;;;;;5055074;28;20044;-80
2021/12/29 03:46:41;;;;;;;19.67;12.10;;;5.40;99.90;;;;;;5041771;28;20029;-80
2021/12/29 03:49:08;;;;;;;21.08;12.18;;;5.40;99.90;;;;;;5055931;28;20045;-80
2021/12/29 03:51:34;;;;;;;26.92;13.63;;;5.40;99.90;;;;;;5058798;28;20017;-81
2021/12/29 03:54:02;;;;;;;24.63;13.50;;;5.50;99.90;;;;;;5037654;28;20032;-80
2021/12/29 03:56:28;;;;;;;21.27;13.35;;;5.50;99.90;;;;;;5062489;28;20109;-81
2021/12/29 03:58:57;;;;;;;24.83;13.30;;;5.40;99.90;;;;;;5058609;28;20363;-80
2021/12/29 04:01:25;;;;;;;33.28;17.38;;;5.50;99.90;;;;;;5042597;28;20048;-80
2021/12/29 04:03:59;;;;;;;113.13;44.33;;;5.50;99.90;;;;;;5044972;28;20040;-81
2021/12/29 04:06:25;;;;;;;145.52;59.17;;;5.50;99.90;;;;;;5062447;28;20036;-79
2021/12/29 04:08:52;;;;;;;148.73;58.63;;;5.40;99.90;;;;;;5062498;28;20013;-80
2021/12/29 04:11:18;;;;;;;152.32;57.83;;;5.50;99.90;;;;;;5063952;28;20025;-82
2021/12/29 04:13:47;;;;;;;157.20;60.40;;;5.40;99.90;;;;;;5050659;28;20779;-81
2021/12/29 04:16:16;;;;;;;168.15;62.28;;;5.40;99.90;;;;;;5050462;28;20037;-80
2021/12/29 04:21:39;;;;;;;165.77;65.38;;;5.40;99.90;;;;;;5052689;28;20071;-80
2021/12/29 04:24:08;;;;;;;162.80;63.92;;;5.40;99.90;;;;;;5055762;28;20124;-79
2021/12/29 04:26:39;;;;;;;164.27;63.63;;;5.40;99.90;;;;;;5054693;28;20048;-80
2021/12/29 04:29:08;;;;;;;163.43;64.35;;;5.40;99.90;;;;;;5052141;28;20032;-79
2021/12/29 04:31:34;;;;;;;157.70;61.60;;;5.40;99.90;;;;;;5052913;28;20025;-79
2021/12/29 04:34:01;;;;;;;141.77;58.08;;;5.40;99.90;;;;;;5053050;28;20021;-79
2021/12/29 04:36:26;;;;;;;144.00;57.90;;;5.40;99.90;;;;;;5052607;28;20063;-79
2021/12/29 04:38:54;;;;;;;139.50;59.40;;;5.40;99.90;;;;;;5033710;28;20032;-80
2021/12/29 04:41:21;;;;;;;130.18;55.38;;;5.40;99.90;;;;;;5050749;28;20056;-79
2021/12/29 04:43:52;;;;;;;146.73;57.95;;;5.50;99.90;;;;;;5049907;28;20025;-80
2021/12/29 04:46:19;;;;;;;142.07;57.08;;;5.50;99.90;;;;;;5034944;28;20480;-80
2021/12/29 04:48:51;;;;;;;149.07;61.53;;;5.50;99.90;;;;;;5053104;28;20657;-79
2021/12/29 04:51:33;;;;;;;146.77;60.83;;;5.40;99.90;;;;;;5052042;28;20036;-79
2021/12/29 04:54:01;;;;;;;147.07;59.55;;;5.40;99.90;;;;;;5050850;28;20094;-79
2021/12/29 04:56:27;;;;;;;149.35;58.40;;;5.40;99.90;;;;;;5050470;28;20036;-79
2021/12/29 04:58:56;;;;;;;120.20;52.15;;;5.40;99.90;;;;;;5050825;28;20093;-79
2021/12/29 05:01:23;;;;;;;109.97;48.28;;;5.50;99.90;;;;;;5033556;28;20021;-80
2021/12/29 05:03:53;;;;;;;106.55;44.75;;;5.40;99.90;;;;;;5053238;28;20361;-79
2021/12/29 05:09:11;;;;;;;116.95;50.15;;;5.30;99.90;;;;;;5052281;28;20753;-79
2021/12/29 05:11:40;;;;;;;123.10;53.15;;;5.40;99.90;;;;;;5052625;28;20105;-80
2021/12/29 05:14:09;;;;;;;110.95;50.05;;;5.50;99.90;;;;;;5039589;28;20387;-79
2021/12/29 05:16:35;;;;;;;94.45;42.97;;;5.50;99.90;;;;;;5063588;28;20074;-81
2021/12/29 05:19:02;;;;;;;72.43;34.50;;;5.50;99.90;;;;;;5060623;28;20094;-81
2021/12/29 05:21:28;;;;;;;66.47;30.10;;;5.50;99.90;;;;;;5060957;28;20025;-80
2021/12/29 05:23:57;;;;;;;50.17;26.25;;;5.60;99.90;;;;;;5041082;28;20029;-82
2021/12/29 05:26:23;;;;;;;47.78;23.35;;;4.60;99.90;;;;;;5039097;28;20082;-79
2021/12/29 05:28:50;;;;;;;69.35;34.47;;;5.60;99.90;;;;;;5043349;28;20025;-82
2021/12/29 05:31:17;;;;;;;90.38;38.05;;;5.60;99.90;;;;;;5055819;28;20102;-80
2021/12/29 05:33:43;;;;;;;60.30;29.95;;;5.50;99.90;;;;;;5051668;28;20029;-80
2021/12/29 05:36:10;;;;;;;41.80;23.73;;;5.50;99.90;;;;;;5056206;28;20407;-80
2021/12/29 05:38:35;;;;;;;38.28;20.27;;;5.50;99.90;;;;;;5057018;28;20032;-83
2021/12/29 05:41:02;;;;;;;35.33;20.05;;;5.60;99.90;;;;;;5057309;28;20373;-81
2021/12/29 05:43:28;;;;;;;33.83;19.52;;;5.50;99.90;;;;;;5057616;28;20036;-82
2021/12/29 05:45:54;;;;;;;35.22;19.73;;;5.50;99.90;;;;;;5034958;28;20021;-81
2021/12/29 05:48:20;;;;;;;35.15;20.35;;;5.50;99.90;;;;;;5057325;28;20029;-81
2021/12/29 05:50:46;;;;;;;35.28;18.67;;;5.50;99.90;;;;;;5040566;28;20025;-81
2021/12/29 05:53:15;;;;;;;39.30;20.38;;;5.60;99.90;;;;;;5056167;28;20548;-81
2021/12/29 05:55:41;;;;;;;35.80;21.23;;;5.60;99.90;;;;;;5053664;28;20021;-79
2021/12/29 05:58:09;;;;;;;39.97;22.25;;;5.70;99.90;;;;;;5054198;28;20056;-81
2021/12/29 06:00:37;;;;;;;40.50;22.88;;;5.70;99.90;;;;;;5054936;28;20101;-79
2021/12/29 06:03:03;;;;;;;46.95;26.95;;;5.70;99.90;;;;;;5056490;28;20025;-81
2021/12/29 06:05:29;;;;;;;41.75;23.92;;;5.80;99.90;;;;;;5057295;28;20029;-82
2021/12/29 06:07:58;;;;;;;36.15;19.23;;;5.70;99.90;;;;;;5039077;28;20029;-82
2021/12/29 06:10:24;;;;;;;32.92;18.65;;;5.70;99.90;;;;;;5043840;28;20458;-82
2021/12/29 06:12:50;;;;;;;32.95;17.50;;;5.60;99.90;;;;;;5039866;28;20478;-82
2021/12/29 06:15:18;;;;;;;33.92;19.98;;;5.70;99.90;;;;;;5040063;28;20120;-81
2021/12/29 06:17:44;;;;;;;49.78;24.27;;;6.00;99.90;;;;;;5054317;28;20195;-82
2021/12/29 06:20:13;;;;;;;72.43;34.15;;;6.20;99.90;;;;;;5046158;28;20032;-82
2021/12/29 06:22:40;;;;;;;94.80;45.08;;;5.70;99.90;;;;;;5060046;28;20029;-83
2021/12/29 06:25:12;;;;;;;101.50;46.95;;;5.70;99.90;;;;;;5031398;28;20090;-82
2021/12/29 06:27:39;;;;;;;111.47;50.83;;;5.70;99.90;;;;;;5032511;28;20230;-82
2021/12/29 06:30:10;;;;;;;121.47;52.25;;;4.30;99.90;;;;;;5014162;28;20033;-81
2021/12/29 06:32:36;;;;;;;123.55;55.28;;;5.70;99.90;;;;;;5059229;28;20059;-82
2021/12/29 06:35:06;;;;;;;123.90;55.15;;;5.80;99.90;;;;;;5053298;28;20479;-82
2021/12/29 06:37:34;;;;;;;117.32;52.83;;;5.80;99.90;;;;;;5055762;28;20028;-80
2021/12/29 06:40:02;;;;;;;119.63;53.42;;;5.80;99.90;;;;;;5045132;28;20025;-82
2021/12/29 06:42:28;;;;;;;113.55;53.10;;;5.80;99.90;;;;;;5042722;28;20029;-83
2021/12/29 06:44:55;;;;;;;133.88;59.67;;;5.80;99.90;;;;;;5046344;28;20164;-82
2021/12/29 06:47:22;;;;;;;120.72;53.92;;;5.80;99.90;;;;;;5045737;28;20028;-82
2021/12/29 06:49:48;;;;;;;119.35;55.22;;;5.80;99.90;;;;;;5046692;28;20080;-83
2021/12/29 06:52:14;;;;;;;112.30;52.40;;;5.80;99.90;;;;;;5048533;28;20029;-82
2021/12/29 06:54:41;;;;;;;117.50;52.10;;;5.90;99.90;;;;;;5067392;28;20477;-82
2021/12/29 06:57:07;;;;;;;123.65;54.13;;;7.70;99.90;;;;;;5031835;28;20032;-82
2021/12/29 06:59:33;;;;;;;111.55;52.10;;;5.40;99.90;;;;;;5045012;28;20083;-83
2021/12/29 07:02:00;;;;;;;116.30;53.33;;;6.50;99.90;;;;;;5060928;28;20025;-82
2021/12/29 07:04:27;;;;;;;117.20;55.97;;;6.00;99.90;;;;;;5060072;28;20198;-83
2021/12/29 07:06:53;;;;;;;121.45;53.78;;;5.90;99.90;;;;;;5032269;28;20033;-83
2021/12/29 07:09:21;;;;;;;123.85;58.20;;;6.50;99.90;;;;;;5068839;28;20024;-82
2021/12/29 07:11:47;;;;;;;122.50;56.30;;;6.30;99.90;;;;;;5040181;28;20032;-82
2021/12/29 07:14:13;;;;;;;117.03;56.58;;;6.50;99.90;;;;;;5037309;28;20375;-82
2021/12/29 07:16:39;;;;;;;118.18;54.00;;;6.60;99.90;;;;;;5040779;28;20025;-82
2021/12/29 07:19:07;;;;;;;115.22;54.15;;;6.20;99.90;;;;;;5063435;28;20025;-82
2021/12/29 07:21:35;;;;;;;110.80;52.13;;;6.30;99.90;;;;;;5063212;28;20032;-82
2021/12/29 07:24:02;;;;;;;107.72;52.90;;;6.30;99.90;;;;;;5063536;28;20051;-82
2021/12/29 07:26:29;;;;;;;111.70;53.15;;;6.40;99.90;;;;;;5044546;28;20021;-82
2021/12/29 07:28:56;;;;;;;127.28;60.78;;;6.40;99.90;;;;;;5040591;28;20035;-83
2021/12/29 07:31:23;;;;;;;125.97;59.83;;;6.50;99.90;;;;;;5067312;28;20510;-83
2021/12/29 07:33:55;;;;;;;123.68;57.65;;;6.50;99.90;;;;;;5066890;28;20090;-82
2021/12/29 07:36:24;;;;;;;121.20;58.47;;;6.50;99.90;;;;;;5055815;28;20017;-83
2021/12/29 07:38:53;;;;;;;127.07;57.65;;;6.90;99.90;;;;;;5061377;28;20025;-82
2021/12/29 07:41:46;;;;;;;118.95;57.40;;;6.60;99.90;;;;;;5058008;28;20088;-82
2021/12/29 07:44:13;;;;;;;117.63;55.53;;;6.50;99.90;;;;;;5055040;28;20239;-82
2021/12/29 07:46:41;;;;;;;122.10;56.78;;;6.60;99.90;;;;;;5044820;28;20025;-82
2021/12/29 07:49:07;;;;;;;126.07;58.65;;;6.10;99.90;;;;;;5061395;28;20116;-83
2021/12/29 07:52:07;;;;;;;135.65;62.88;;;6.50;99.90;;;;;;5065908;28;20041;-82
2021/12/29 07:54:34;;;;;;;133.45;63.22;;;6.80;99.90;;;;;;4985503;28;20030;-81
2021/12/29 07:57:00;;;;;;;138.75;62.97;;;6.50;99.90;;;;;;5000546;28;20035;-82
2021/12/29 07:59:27;;;;;;;145.02;64.93;;;6.80;99.90;;;;;;4994227;28;20055;-81
2021/12/29 08:01:53;;;;;;;138.85;66.05;;;6.70;99.90;;;;;;4980023;28;20034;-81
2021/12/29 08:04:23;;;;;;;127.13;63.15;;;6.70;99.90;;;;;;4997751;28;20045;-82
2021/12/29 08:06:53;;;;;;;141.18;67.55;;;4.00;99.90;;;;;;4994095;28;20107;-82
2021/12/29 08:09:24;;;;;;;121.13;59.33;;;6.90;99.90;;;;;;4996599;28;20674;-80
2021/12/29 08:11:49;;;;;;;126.93;60.47;;;4.10;99.90;;;;;;4996714;28;20066;-82
2021/12/29 08:14:16;;;;;;;113.43;55.08;;;7.10;99.90;;;;;;4977120;28;20025;-82
2021/12/29 08:16:45;;;;;;;114.88;55.42;;;7.10;99.90;;;;;;4983829;28;20490;-81
2021/12/29 08:19:12;;;;;;;119.70;55.22;;;7.00;99.90;;;;;;4981541;28;20034;-81
2021/12/29 08:21:42;;;;;;;121.13;56.88;;;5.10;99.90;;;;;;5004748;28;20078;-82
2021/12/29 08:24:10;;;;;;;131.82;62.15;;;7.10;99.90;;;;;;4981118;28;20046;-81
2021/12/29 08:26:40;;;;;;;133.13;59.17;;;7.00;99.90;;;;;;5002820;28;20043;-82
2021/12/29 08:29:19;;;;;;;130.00;62.53;;;7.00;99.90;;;;;;5005993;28;20026;-82
2021/12/29 08:31:47;;;;;;;137.95;62.50;;;7.00;99.90;;;;;;4991471;28;20034;-82
2021/12/29 08:34:21;;;;;;;144.73;64.18;;;6.90;99.90;;;;;;5009492;28;20033;-82
2021/12/29 08:36:46;;;;;;;133.45;63.88;;;4.90;99.90;;;;;;5007927;28;20030;-81
2021/12/29 08:39:23;;;;;;;129.48;61.88;;;7.20;99.90;;;;;;5007786;28;20083;-81
2021/12/29 08:41:49;;;;;;;;;;;7.80;99.90;;;;;;4995151;28;20033;-81
2021/12/29 08:44:16;;;;;;;131.98;64.25;;;7.50;99.90;;;;;;5013483;28;19905;-83
2021/12/29 08:46:51;;;;;;;142.88;66.30;;;7.30;99.90;;;;;;5047939;28;20118;-83
2021/12/29 08:49:27;;;;;;;132.95;64.72;;;7.50;99.90;;;;;;5073605;28;20048;-85
2021/12/29 08:55:39;;;;;;;114.53;53.60;;;9.20;97.80;;;;;;5020062;28;20022;-82
2021/12/29 08:58:06;;;;;;;120.00;59.05;;;9.20;93.80;;;;;;5013255;28;20147;-82
2021/12/29 09:00:42;;;;;;;137.88;66.28;;;10.70;95.10;;;;;;5005011;28;20113;-82
2021/12/29 09:03:08;;;;;;;139.02;68.72;;;10.40;95.30;;;;;;4977998;28;20130;-81
2021/12/29 09:05:34;;;;;;;134.93;69.00;;;12.20;97.90;;;;;;4956451;28;20125;-80
2021/12/29 09:08:00;;;;;;;136.65;67.00;;;9.80;98.10;;;;;;4971948;28;20586;-81
2021/12/29 09:10:26;;;;;;;134.57;67.10;;;9.20;99.20;;;;;;4969182;28;20023;-80
2021/12/29 09:12:52;;;;;;;159.68;73.80;;;8.70;99.40;;;;;;4970561;28;20070;-79
2021/12/29 09:15:22;;;;;;;153.70;74.82;;;8.50;99.90;;;;;;4974450;28;20054;-81
2021/12/29 09:17:56;;;;;;;151.55;74.97;;;8.50;99.90;;;;;;4976614;28;20113;-82
2021/12/29 09:20:29;;;;;;;158.45;76.20;;;8.00;99.90;;;;;;4979658;28;20030;-81
2021/12/29 09:23:00;;;;;;;166.80;83.07;;;8.20;99.90;;;;;;4977704;28;20062;-80
2021/12/29 09:25:39;;;;;;;178.60;84.15;;;7.70;99.90;;;;;;4980525;28;20050;-79
2021/12/29 09:28:06;;;;;;;174.77;85.72;;;7.70;99.90;;;;;;4973104;28;20070;-82
2021/12/29 09:30:35;;;;;;;170.57;82.03;;;7.90;99.90;;;;;;4973179;28;20046;-82
2021/12/29 09:33:04;;;;;;;187.38;87.03;;;7.60;99.90;;;;;;4974838;28;20098;-79
2021/12/29 09:35:30;;;;;;;176.93;84.55;;;7.90;99.90;;;;;;4982406;28;20038;-80
2021/12/29 09:37:59;;;;;;;184.60;86.68;;;7.70;99.90;;;;;;4993912;28;20073;-80
2021/12/29 09:40:25;;;;;;;169.38;84.05;;;7.70;99.90;;;;;;4998460;28;20038;-81
2021/12/29 09:42:56;;;;;;;171.85;84.57;;;7.90;99.90;;;;;;4981125;28;20104;-80
2021/12/29 09:45:25;;;;;;;166.52;85.35;;;8.40;99.90;;;;;;4977846;28;20088;-80
2021/12/29 09:47:57;;;;;;;180.07;85.93;;;9.10;99.90;;;;;;4977623;28;20063;-80
2021/12/29 09:50:45;;;;;;;161.25;81.65;;;8.60;99.90;;;;;;4987834;28;20095;-83
2021/12/29 09:53:23;;;;;;;165.95;78.53;;;9.70;99.90;;;;;;4958504;28;20015;-82
2021/12/29 09:55:52;;;;;;;161.90;80.60;;;8.90;99.60;;;;;;4973153;28;20030;-80
2021/12/29 09:58:18;;;;;;;148.45;74.15;;;9.40;99.90;;;;;;4955696;28;20019;-83
2021/12/29 10:00:46;;;;;;;159.80;79.03;;;9.10;99.70;;;;;;5005893;28;20034;-81
2021/12/29 10:03:18;;;;;;;163.88;80.07;;;9.30;99.80;;;;;;5037419;28;20031;-81
2021/12/29 10:05:48;;;;;;;146.48;75.90;;;9.90;98.30;;;;;;5012191;28;20044;-81
2021/12/29 10:08:26;;;;;;;137.25;68.25;;;13.40;98.00;;;;;;5036871;28;20025;-80
2021/12/29 10:10:55;;;;;;;107.32;55.65;;;11.10;96.60;;;;;;5052765;28;20044;-80
2021/12/29 10:13:24;;;;;;;91.38;48.00;;;10.40;96.90;;;;;;5052132;28;20025;-82
2021/12/29 10:16:02;;;;;;;105.85;55.92;;;10.70;96.10;;;;;;5053079;28;20073;-79
2021/12/29 10:18:37;;;;;;;111.00;57.35;;;11.10;95.30;;;;;;5044574;28;20022;-80
2021/12/29 10:21:20;;;;;;;103.20;54.25;;;11.10;94.80;;;;;;5019435;28;20029;-81
2021/12/29 10:23:55;;;;;;;115.00;54.92;;;11.00;95.50;;;;;;5024832;28;20037;-81
2021/12/29 10:26:31;;;;;;;95.13;51.05;;;11.50;95.20;;;;;;5039172;28;20021;-79
2021/12/29 10:29:07;;;;;;;82.85;45.20;;;11.30;94.10;;;;;;5002606;28;20029;-79
2021/12/29 10:31:46;;;;;;;78.55;42.70;;;11.50;94.00;;;;;;5017080;28;20030;-81
2021/12/29 10:34:29;;;;;;;53.83;29.42;;;12.10;93.60;;;;;;5039243;28;20087;-80
2021/12/29 10:37:12;;;;;;;48.28;25.35;;;13.20;93.30;;;;;;5045590;28;20541;-82
2021/12/29 10:39:45;;;;;;;49.72;26.85;;;11.30;93.00;;;;;;5023240;28;20005;-81
2021/12/29 10:42:17;;;;;;;43.33;23.35;;;8.70;92.70;;;;;;5019067;28;20025;-81
2021/12/29 10:44:51;;;;;;;33.42;19.77;;;11.90;93.30;;;;;;5023425;28;20512;-81
2021/12/29 10:47:24;;;;;;;29.65;16.65;;;12.00;92.60;;;;;;5034254;28;20128;-80
2021/12/29 10:50:12;;;;;;;23.80;14.88;;;9.00;92.00;;;;;;5058841;28;20053;-79
2021/12/29 10:52:54;;;;;;;37.17;18.70;;;12.80;92.40;;;;;;5046226;28;20405;-79
2021/12/29 10:55:31;;;;;;;44.00;23.10;;;12.20;91.00;;;;;;5022837;28;20047;-78
2021/12/29 10:58:20;;;;;;;43.20;24.30;;;11.80;92.00;;;;;;5056749;28;20032;-79
2021/12/29 11:00:59;;;;;;;30.48;17.02;;;8.10;91.60;;;;;;5040555;28;20024;-80
2021/12/29 11:03:30;;;;;;;41.20;22.38;;;11.90;92.70;;;;;;5051843;28;20126;-82
2021/12/29 11:06:04;;;;;;;59.10;33.13;;;12.00;92.60;;;;;;5042332;28;20037;-83
2021/12/29 11:08:45;;;;;;;53.80;31.00;;;11.90;91.70;;;;;;5043410;28;20017;-84
2021/12/29 11:11:11;;;;;;;59.30;32.00;;;12.90;91.70;;;;;;5042448;28;20017;-83
2021/12/29 11:13:36;;;;;;;60.53;36.00;;;12.70;91.80;;;;;;5042525;28;20020;-85
2021/12/29 11:16:05;;;;;;;65.53;35.90;;;13.10;90.50;;;;;;5041271;28;20105;-82
2021/12/29 11:18:44;;;;;;;84.15;44.72;;;13.40;90.20;;;;;;5023354;28;20060;-82
2021/12/29 11:21:22;;;;;;;82.78;41.50;;;13.50;87.60;;;;;;5040747;28;20100;-79
2021/12/29 11:23:47;;;;;;;74.57;41.90;;;13.60;87.30;;;;;;5039688;28;20036;-81
2021/12/29 11:26:13;;;;;;;80.13;42.97;;;13.60;87.00;;;;;;5041288;28;20021;-80
2021/12/29 11:28:40;;;;;;;65.05;37.75;;;10.70;86.60;;;;;;5023085;28;20025;-83
2021/12/29 11:31:09;;;;;;;65.38;37.75;;;13.50;88.10;;;;;;5041292;28;20067;-85
2021/12/29 11:33:35;;;;;;;67.47;37.78;;;13.50;86.80;;;;;;5023194;28;20116;-82
2021/12/29 11:36:04;;;;;;;63.95;35.20;;;13.40;88.60;;;;;;5041719;28;20082;-86
2021/12/29 11:38:31;;;;;;;60.58;33.03;;;13.10;87.70;;;;;;5040613;28;20024;-84
2021/12/29 11:41:00;;;;;;;60.75;34.15;;;12.80;88.10;;;;;;5041008;28;20077;-88
2021/12/29 11:43:28;;;;;;;58.78;31.25;;;12.70;89.10;;;;;;5040333;28;20025;-79
2021/12/29 11:45:56;;;;;;;53.83;29.73;;;12.40;88.50;;;;;;5041622;28;20021;-84
2021/12/29 11:48:23;;;;;;;47.00;24.85;;;12.20;90.00;;;;;;5022600;28;20025;-80
2021/12/29 11:51:00;;;;;;;43.05;24.17;;;12.10;89.60;;;;;;5024507;28;20645;-83
2021/12/29 11:53:46;;;;;;;37.47;22.65;;;11.80;89.80;;;;;;5045182;28;20026;-82
2021/12/29 11:56:19;;;;;;;43.58;24.40;;;11.50;90.40;;;;;;5044625;28;20571;-85
2021/12/29 11:58:47;;;;;;;51.63;27.58;;;11.50;90.70;;;;;;5045241;28;20021;-85
2021/12/29 12:01:25;;;;;;;48.50;25.42;;;11.30;91.20;;;;;;5053796;28;20545;-83
2021/12/29 12:03:56;;;;;;;32.10;16.67;;;11.20;91.70;;;;;;5041970;28;20037;-83
2021/12/29 12:06:31;;;;;;;27.77;15.52;;;11.10;92.00;;;;;;5062398;28;20024;-83
2021/12/29 12:09:06;;;;;;;24.20;13.63;;;10.90;92.10;;;;;;5051667;28;20122;-79
2021/12/29 12:11:32;;;;;;;28.63;16.17;;;10.10;92.40;;;;;;5058558;28;20342;-84
2021/12/29 12:13:58;;;;;;;36.97;20.40;;;10.90;92.30;;;;;;5060299;28;20088;-82
2021/12/29 12:16:27;;;;;;;36.70;20.45;;;11.00;93.00;;;;;;5037320;28;20033;-83
2021/12/29 12:19:00;;;;;;;28.33;16.55;;;10.90;93.20;;;;;;5014593;28;20021;-82
2021/12/29 12:21:32;;;;;;;46.83;26.02;;;11.00;92.60;;;;;;5044983;28;20036;-79
2021/12/29 12:24:20;;;;;;;36.50;20.38;;;11.00;92.70;;;;;;5044842;28;20086;-81
2021/12/29 12:27:23;;;;;;;31.85;17.10;;;11.00;92.30;;;;;;5049097;28;20506;-84
2021/12/29 12:30:21;;;;;;;27.02;13.80;;;11.00;92.20;;;;;;5054261;28;20025;-79
2021/12/29 12:32:58;;;;;;;28.40;15.50;;;11.00;91.70;;;;;;5059271;28;20021;-80
2021/12/29 12:35:33;;;;;;;27.83;15.27;;;11.00;92.20;;;;;;5055536;28;20029;-78
2021/12/29 12:38:22;;;;;;;31.48;15.98;;;11.10;92.60;;;;;;5053026;28;20013;-84
2021/12/29 12:41:07;;;;;;;44.30;19.73;;;11.00;92.60;;;;;;5046245;28;20028;-80
2021/12/29 12:43:59;;;;;;;42.40;20.02;;;11.10;92.50;;;;;;5053843;28;20036;-80
2021/12/29 12:46:40;;;;;;;31.65;17.38;;;11.00;92.60;;;;;;5053244;28;20020;-79
2021/12/29 12:49:21;;;;;;;29.48;15.75;;;11.00;92.50;;;;;;5054533;28;20063;-81
2021/12/29 12:52:07;;;;;;;31.48;16.92;;;11.00;92.70;;;;;;5040965;28;20048;-81
2021/12/29 12:54:37;;;;;;;48.25;28.20;;;11.00;92.60;;;;;;5055737;28;20032;-79